createdAt,value
2023-01-27T00:00:53.476Z,0.50
2023-01-27T00:03:21.043Z,0.50
2023-01-27T00:05:48.313Z,0.50
2023-01-27T00:08:15.920Z,0.40
2023-01-27T00:10:43.256Z,0.40
2023-01-27T00:13:27.438Z,0.40
2023-01-27T00:15:55.087Z,0.40
2023-01-27T00:18:23.703Z,0.40
2023-01-27T00:21:09.557Z,0.40
2023-01-27T00:23:55.161Z,0.40
2023-01-27T00:26:22.699Z,0.40
2023-01-27T00:28:49.660Z,0.40
2023-01-27T00:31:36.211Z,0.30
2023-01-27T00:34:09.547Z,0.40
2023-01-27T00:36:41.845Z,0.40
2023-01-27T00:39:11.522Z,0.30
2023-01-27T00:41:39.252Z,0.40
2023-01-27T00:44:06.363Z,0.40
2023-01-27T00:46:34.708Z,0.50
2023-01-27T00:49:01.672Z,0.50
2023-01-27T00:51:28.609Z,0.50
2023-01-27T00:53:55.642Z,0.40
2023-01-27T00:56:22.642Z,0.40
2023-01-27T00:58:49.716Z,0.30
2023-01-27T01:01:17.616Z,0.30
2023-01-27T01:03:44.720Z,0.40
2023-01-27T01:06:13.742Z,0.40
2023-01-27T01:08:40.987Z,0.40
2023-01-27T01:11:11.152Z,0.50
2023-01-27T01:13:38.114Z,0.60
2023-01-27T01:16:13.960Z,0.60
2023-01-27T01:18:41.246Z,0.60
2023-01-27T01:21:08.209Z,0.50
2023-01-27T01:23:39.730Z,0.50
2023-01-27T01:26:06.927Z,0.60
2023-01-27T01:28:33.941Z,0.60
2023-01-27T01:31:12.234Z,0.60
2023-01-27T01:33:39.741Z,0.60
2023-01-27T01:36:13.222Z,0.60
2023-01-27T01:38:40.570Z,0.60
2023-01-27T01:41:11.746Z,0.50
2023-01-27T01:43:38.689Z,0.50
2023-01-27T01:46:07.951Z,0.40
2023-01-27T01:48:43.578Z,0.40
2023-01-27T01:51:13.675Z,0.40
2023-01-27T01:54:04.207Z,0.40
2023-01-27T01:57:07.792Z,0.40
2023-01-27T01:59:44.384Z,0.50
2023-01-27T02:02:14.371Z,0.50
2023-01-27T02:04:47.763Z,0.50
2023-01-27T02:07:22.401Z,0.50
2023-01-27T02:09:49.746Z,0.40
2023-01-27T02:12:16.690Z,0.40
2023-01-27T02:14:43.698Z,0.40
2023-01-27T02:17:14.804Z,0.50
2023-01-27T02:19:53.619Z,0.40
2023-01-27T02:22:49.925Z,0.50
2023-01-27T02:25:37.165Z,0.50
2023-01-27T02:28:07.189Z,0.60
2023-01-27T02:30:34.180Z,0.60
2023-01-27T02:33:01.279Z,0.60
2023-01-27T02:35:36.819Z,0.60
2023-01-27T02:38:06.409Z,0.50
2023-01-27T02:40:34.491Z,0.50
2023-01-27T02:43:04.993Z,0.50
2023-01-27T02:45:32.050Z,0.50
2023-01-27T02:47:59.011Z,0.60
2023-01-27T02:50:25.959Z,0.60
2023-01-27T02:52:52.827Z,0.60
2023-01-27T02:55:19.815Z,0.50
2023-01-27T02:57:46.793Z,0.50
2023-01-27T03:00:13.942Z,0.50
2023-01-27T03:02:40.940Z,0.50
2023-01-27T03:05:08.148Z,0.50
2023-01-27T03:07:35.045Z,0.50
2023-01-27T03:10:02.015Z,0.50
2023-01-27T03:12:28.871Z,0.50
2023-01-27T03:15:14.393Z,0.50
2023-01-27T03:18:00.024Z,0.40
2023-01-27T03:20:26.912Z,0.40
2023-01-27T03:22:53.810Z,0.30
2023-01-27T03:25:20.765Z,0.30
2023-01-27T03:27:47.696Z,0.30
2023-01-27T03:30:14.703Z,0.40
2023-01-27T03:32:46.898Z,0.30
2023-01-27T03:35:15.511Z,0.30
2023-01-27T03:38:01.992Z,0.30
2023-01-27T03:40:47.649Z,0.30
2023-01-27T03:43:33.303Z,0.30
2023-01-27T03:46:21.134Z,0.30
2023-01-27T03:48:53.261Z,0.30
2023-01-27T03:51:24.850Z,0.30
2023-01-27T03:53:51.856Z,0.40
2023-01-27T03:56:21.062Z,0.40
2023-01-27T03:58:49.917Z,0.30
2023-01-27T04:01:19.496Z,0.40
2023-01-27T04:04:06.337Z,0.40
2023-01-27T04:06:54.427Z,0.40
2023-01-27T04:09:22.842Z,0.40
2023-01-27T04:11:56.065Z,0.40
2023-01-27T04:14:28.708Z,0.40
2023-01-27T04:17:01.809Z,0.30
2023-01-27T04:19:29.311Z,0.30
2023-01-27T04:21:57.415Z,0.40
2023-01-27T04:24:24.701Z,0.40
2023-01-27T04:27:00.242Z,0.40
2023-01-27T04:29:31.093Z,0.40
2023-01-27T04:31:58.540Z,0.30
2023-01-27T04:34:26.869Z,0.30
2023-01-27T04:36:54.495Z,0.30
2023-01-27T04:39:21.551Z,0.40
2023-01-27T04:41:49.780Z,0.40
2023-01-27T04:44:16.877Z,0.40
2023-01-27T04:46:43.805Z,0.40
2023-01-27T04:49:11.205Z,0.40
2023-01-27T04:51:38.586Z,0.40
2023-01-27T04:54:06.079Z,0.40
2023-01-27T04:56:39.676Z,0.40
2023-01-27T04:59:10.681Z,0.50
2023-01-27T05:01:37.710Z,0.40
2023-01-27T05:04:04.833Z,0.40
2023-01-27T05:06:32.047Z,0.40
2023-01-27T05:09:01.524Z,0.30
2023-01-27T05:11:28.515Z,0.30
2023-01-27T05:13:55.504Z,0.30
2023-01-27T05:16:24.394Z,0.30
2023-01-27T05:18:53.132Z,0.40
2023-01-27T05:21:25.283Z,0.40
2023-01-27T05:23:52.272Z,0.40
2023-01-27T05:26:24.374Z,0.40
2023-01-27T05:28:52.928Z,0.50
2023-01-27T05:31:28.612Z,0.50
2023-01-27T05:33:59.831Z,0.40
2023-01-27T05:36:29.098Z,0.40
2023-01-27T05:38:57.270Z,0.50
2023-01-27T05:41:25.610Z,0.40
2023-01-27T05:43:55.284Z,0.40
2023-01-27T05:46:27.483Z,0.40
2023-01-27T05:48:56.586Z,0.40
2023-01-27T05:51:26.165Z,0.40
2023-01-27T05:53:57.196Z,0.40
2023-01-27T05:56:26.683Z,0.40
2023-01-27T05:58:55.248Z,0.50
2023-01-27T06:01:31.702Z,0.40
2023-01-27T06:03:59.233Z,0.40
2023-01-27T06:06:27.970Z,0.50
2023-01-27T06:08:55.169Z,0.40
2023-01-27T06:11:24.347Z,0.50
2023-01-27T06:13:52.901Z,0.40
2023-01-27T06:16:21.566Z,0.50
2023-01-27T06:18:49.337Z,0.50
2023-01-27T06:21:17.704Z,0.50
2023-01-27T06:23:44.736Z,0.40
2023-01-27T06:26:16.515Z,0.50
2023-01-27T06:28:43.921Z,0.60
2023-01-27T06:31:16.391Z,0.60
2023-01-27T06:33:43.815Z,0.60
2023-01-27T06:36:13.221Z,0.60
2023-01-27T06:38:40.478Z,0.60
2023-01-27T06:41:07.747Z,0.70
2023-01-27T06:43:35.227Z,0.70
2023-01-27T06:46:05.390Z,0.70
2023-01-27T06:48:33.208Z,0.70
2023-01-27T06:51:00.324Z,0.80
2023-01-27T06:53:28.502Z,0.80
2023-01-27T06:55:57.185Z,0.80
2023-01-27T06:58:24.621Z,0.80
2023-01-27T07:00:52.381Z,0.80
2023-01-27T07:03:19.532Z,0.90
2023-01-27T07:05:46.553Z,0.90
2023-01-27T07:08:13.452Z,0.90
2023-01-27T07:10:40.378Z,1.00
2023-01-27T07:13:12.343Z,1.00
2023-01-27T07:15:39.479Z,1.00
2023-01-27T07:18:06.555Z,1.00
2023-01-27T07:20:33.898Z,1.00
2023-01-27T07:23:02.795Z,1.00
2023-01-27T07:25:33.440Z,1.00
2023-01-27T07:28:01.952Z,1.00
2023-01-27T07:30:29.010Z,1.10
2023-01-27T07:32:56.079Z,1.00
2023-01-27T07:35:23.857Z,1.00
2023-01-27T07:37:50.939Z,1.00
2023-01-27T07:40:18.600Z,1.10
2023-01-27T07:42:45.578Z,1.10
2023-01-27T07:45:12.580Z,1.10
2023-01-27T07:47:40.147Z,1.10
2023-01-27T07:50:07.784Z,1.20
2023-01-27T07:52:34.772Z,1.20
2023-01-27T07:55:01.820Z,1.20
2023-01-27T07:57:28.787Z,1.20
2023-01-27T07:59:56.795Z,1.20
2023-01-27T08:02:24.440Z,1.20
2023-01-27T08:04:53.623Z,1.20
2023-01-27T08:07:21.441Z,1.20
2023-01-27T08:09:48.659Z,1.20
2023-01-27T08:12:15.618Z,1.30
2023-01-27T08:14:42.588Z,1.20
2023-01-27T08:17:09.693Z,1.20
2023-01-27T08:19:36.632Z,1.20
2023-01-27T08:22:03.645Z,1.10
2023-01-27T08:24:30.583Z,1.20
2023-01-27T08:26:57.578Z,1.20
2023-01-27T08:29:24.950Z,1.20
2023-01-27T08:31:52.004Z,1.20
2023-01-27T08:34:19.043Z,1.20
2023-01-27T08:36:46.019Z,1.30
2023-01-27T08:39:13.126Z,1.40
2023-01-27T08:41:40.072Z,1.40
2023-01-27T08:44:07.211Z,1.50
2023-01-27T08:46:34.603Z,1.40
2023-01-27T08:49:01.503Z,1.50
2023-01-27T08:51:28.991Z,1.50
2023-01-27T08:53:55.999Z,1.50
2023-01-27T08:56:23.017Z,1.50
2023-01-27T08:58:52.313Z,1.50
2023-01-27T09:01:20.696Z,1.60
2023-01-27T09:03:47.719Z,1.50
2023-01-27T09:06:15.529Z,1.50
2023-01-27T09:08:42.801Z,1.50
2023-01-27T09:11:15.401Z,1.50
2023-01-27T09:13:43.264Z,1.40
2023-01-27T09:16:10.532Z,1.50
2023-01-27T09:18:37.736Z,1.60
2023-01-27T09:21:08.016Z,1.50
2023-01-27T09:23:34.922Z,1.50
2023-01-27T09:26:01.911Z,1.60
2023-01-27T09:28:28.868Z,1.70
2023-01-27T09:30:59.657Z,1.70
2023-01-27T09:33:27.311Z,1.80
2023-01-27T09:36:15.734Z,1.80
2023-01-27T09:38:53.873Z,1.80
2023-01-27T09:41:42.124Z,1.80
2023-01-27T09:44:26.772Z,1.80
2023-01-27T09:46:58.842Z,1.70
2023-01-27T09:49:51.680Z,1.60
2023-01-27T09:53:00.172Z,1.70
2023-01-27T09:55:37.687Z,1.60
2023-01-27T09:58:24.911Z,1.70
2023-01-27T10:01:07.903Z,1.70
2023-01-27T10:04:00.149Z,1.80
2023-01-27T10:06:54.324Z,1.60
2023-01-27T10:09:44.709Z,1.70
2023-01-27T10:12:19.567Z,1.70
2023-01-27T10:14:59.425Z,1.70
2023-01-27T10:18:03.506Z,1.80
2023-01-27T10:20:36.388Z,1.80
2023-01-27T10:23:40.593Z,1.70
2023-01-27T10:26:32.151Z,1.70
2023-01-27T10:29:11.159Z,1.70
2023-01-27T10:31:48.672Z,1.80
2023-01-27T10:34:35.793Z,1.70
2023-01-27T10:37:11.840Z,1.60
2023-01-27T10:40:01.593Z,1.60
2023-01-27T10:42:38.881Z,1.60
2023-01-27T10:45:05.778Z,1.60
2023-01-27T10:47:53.767Z,1.60
2023-01-27T10:50:27.482Z,1.60
2023-01-27T10:53:07.014Z,1.60
2023-01-27T10:56:04.192Z,1.70
2023-01-27T10:58:33.946Z,1.80
2023-01-27T11:01:20.436Z,1.80
2023-01-27T11:03:58.025Z,1.70
2023-01-27T11:06:39.515Z,1.70
2023-01-27T11:09:24.102Z,1.70
2023-01-27T11:11:52.398Z,1.70
2023-01-27T11:14:25.034Z,1.80
2023-01-27T11:16:56.099Z,1.80
2023-01-27T11:19:26.317Z,1.80
2023-01-27T11:22:06.644Z,1.80
2023-01-27T11:25:04.505Z,1.80
2023-01-27T11:28:04.610Z,1.90
2023-01-27T11:30:42.817Z,1.80
2023-01-27T11:33:48.378Z,1.80
2023-01-27T11:36:15.484Z,1.80
2023-01-27T11:38:42.610Z,1.80
2023-01-27T11:41:10.501Z,1.80
2023-01-27T11:43:38.521Z,1.80
2023-01-27T11:46:11.764Z,1.80
2023-01-27T11:48:46.473Z,1.80
2023-01-27T11:51:23.585Z,1.80
2023-01-27T11:54:16.901Z,1.80
2023-01-27T11:56:47.914Z,1.80
2023-01-27T11:59:28.987Z,1.70
2023-01-27T12:02:18.607Z,1.70
2023-01-27T12:05:01.733Z,1.60
2023-01-27T12:07:55.896Z,1.70
2023-01-27T12:10:25.922Z,1.70
2023-01-27T12:12:53.397Z,1.70
2023-01-27T12:15:20.470Z,1.70
2023-01-27T12:17:51.305Z,1.70
2023-01-27T12:20:33.087Z,1.60
2023-01-27T12:23:05.101Z,1.60
2023-01-27T12:25:43.709Z,1.60
2023-01-27T12:28:33.869Z,1.60
2023-01-27T12:31:26.958Z,1.60
2023-01-27T12:34:13.417Z,1.50
2023-01-27T12:36:44.343Z,1.50
2023-01-27T12:39:40.318Z,1.50
2023-01-27T12:42:27.743Z,1.40
2023-01-27T12:44:54.703Z,1.40
2023-01-27T12:47:27.675Z,1.50
2023-01-27T12:50:21.871Z,1.60
2023-01-27T12:53:14.853Z,1.60
2023-01-27T12:55:52.505Z,1.50
2023-01-27T12:58:39.837Z,1.50
2023-01-27T13:01:18.283Z,1.40
2023-01-27T13:03:45.750Z,1.40
2023-01-27T13:06:17.073Z,1.30
2023-01-27T13:08:45.200Z,1.30
2023-01-27T13:11:12.772Z,1.20
2023-01-27T13:13:50.300Z,1.20
2023-01-27T13:16:29.775Z,1.30
2023-01-27T13:19:00.077Z,1.20
2023-01-27T13:21:36.773Z,1.10
2023-01-27T13:24:10.608Z,1.10
2023-01-27T13:26:39.518Z,1.00
2023-01-27T13:29:09.452Z,1.00
2023-01-27T13:31:48.631Z,1.00
2023-01-27T13:34:53.356Z,1.00
2023-01-27T13:37:37.971Z,0.90
2023-01-27T13:40:26.677Z,0.90
2023-01-27T13:43:20.144Z,0.90
2023-01-27T13:46:12.547Z,0.80
2023-01-27T13:48:48.673Z,0.70
2023-01-27T13:51:19.416Z,0.80
2023-01-27T13:53:48.184Z,0.80
2023-01-27T13:56:38.051Z,0.80
2023-01-27T13:59:04.932Z,0.80
2023-01-27T14:01:46.779Z,0.70
2023-01-27T14:04:27.274Z,0.60
2023-01-27T14:07:08.564Z,0.60
2023-01-27T14:09:54.518Z,0.50
2023-01-27T14:12:36.487Z,0.50
2023-01-27T14:15:20.646Z,0.50
2023-01-27T14:18:26.458Z,0.40
2023-01-27T14:21:01.759Z,0.40
2023-01-27T14:23:48.683Z,0.40
2023-01-27T14:26:48.067Z,0.30
2023-01-27T14:29:23.599Z,0.30
2023-01-27T14:32:03.502Z,0.30
2023-01-27T14:34:48.703Z,0.30
2023-01-27T14:37:18.650Z,0.20
2023-01-27T14:39:54.746Z,0.20
2023-01-27T14:42:35.543Z,0.20
2023-01-27T14:45:06.195Z,0.20
2023-01-27T14:47:55.135Z,0.20
2023-01-27T14:50:42.591Z,0.10
2023-01-27T14:53:31.773Z,0.10
2023-01-27T14:56:26.882Z,0.10
2023-01-27T14:58:54.170Z,0.10
2023-01-27T15:01:50.032Z,0.00
2023-01-27T15:04:29.418Z,0.00
2023-01-27T15:07:11.568Z,0.00
2023-01-27T15:09:43.469Z,0.10
2023-01-27T15:12:47.399Z,0.00
2023-01-27T15:15:28.131Z,0.00
2023-01-27T15:18:33.444Z,0.00
2023-01-27T15:21:25.331Z,0.00
2023-01-27T15:24:07.034Z,0.00
2023-01-27T15:26:34.815Z,0.00
2023-01-27T15:29:04.142Z,0.00
2023-01-27T15:31:33.548Z,-0.10
2023-01-27T15:34:03.443Z,0.00
2023-01-27T15:36:40.648Z,0.00
2023-01-27T15:39:10.553Z,0.00
2023-01-27T15:42:02.477Z,0.00
2023-01-27T15:44:32.408Z,0.00
2023-01-27T15:47:18.269Z,0.00
2023-01-27T15:49:49.940Z,0.10
2023-01-27T15:52:38.186Z,0.00
2023-01-27T15:55:08.765Z,0.00
2023-01-27T15:57:39.059Z,0.00
2023-01-27T16:00:24.936Z,0.00
2023-01-27T16:02:55.019Z,0.00
2023-01-27T16:05:26.978Z,0.00
2023-01-27T16:08:03.967Z,0.00
2023-01-27T16:10:35.368Z,0.00
2023-01-27T16:13:27.848Z,0.00
2023-01-27T16:16:17.821Z,0.00
2023-01-27T16:18:59.692Z,0.00
2023-01-27T16:21:26.883Z,-0.10
2023-01-27T16:24:01.055Z,-0.10
2023-01-27T16:26:50.976Z,-0.10
2023-01-27T16:29:30.014Z,0.00
2023-01-27T16:32:17.387Z,-0.10
2023-01-27T16:34:51.977Z,-0.10
2023-01-27T16:37:40.061Z,-0.10
2023-01-27T16:40:22.758Z,-0.20
2023-01-27T16:42:52.714Z,-0.20
2023-01-27T16:45:22.083Z,-0.20
2023-01-27T16:48:03.261Z,-0.20
2023-01-27T16:50:40.524Z,-0.20
2023-01-27T16:53:24.275Z,-0.30
2023-01-27T16:56:01.623Z,-0.20
2023-01-27T16:58:44.804Z,-0.20
2023-01-27T17:01:26.920Z,-0.30
2023-01-27T17:04:04.888Z,-0.30
2023-01-27T17:06:38.180Z,-0.30
2023-01-27T17:09:32.603Z,-0.30
2023-01-27T17:12:00.064Z,-0.30
2023-01-27T17:14:46.892Z,-0.40
2023-01-27T17:17:22.886Z,-0.30
2023-01-27T17:19:53.713Z,-0.30
2023-01-27T17:22:27.238Z,-0.30
2023-01-27T17:25:02.248Z,-0.40
2023-01-27T17:27:38.432Z,-0.40
2023-01-27T17:30:08.627Z,-0.40
2023-01-27T17:32:38.360Z,-0.40
2023-01-27T17:35:08.745Z,-0.40
2023-01-27T17:37:43.171Z,-0.50
2023-01-27T17:40:18.049Z,-0.40
2023-01-27T17:42:45.322Z,-0.40
2023-01-27T17:45:21.807Z,-0.50
2023-01-27T17:47:49.338Z,-0.50
2023-01-27T17:50:30.732Z,-0.40
2023-01-27T17:52:57.949Z,-0.40
2023-01-27T17:55:27.235Z,-0.50
2023-01-27T17:58:06.487Z,-0.50
2023-01-27T18:00:42.900Z,-0.50
2023-01-27T18:03:34.558Z,-0.50
2023-01-27T18:06:04.619Z,-0.50
2023-01-27T18:08:36.067Z,-0.60
2023-01-27T18:11:20.769Z,-0.50
2023-01-27T18:13:53.583Z,-0.50
2023-01-27T18:16:23.891Z,-0.40
2023-01-27T18:18:53.063Z,-0.50
2023-01-27T18:21:25.240Z,-0.50
2023-01-27T18:23:58.367Z,-0.50
2023-01-27T18:26:42.536Z,-0.60
2023-01-27T18:29:31.633Z,-0.50
2023-01-27T18:32:19.741Z,-0.50
2023-01-27T18:34:53.057Z,-0.60
2023-01-27T18:37:36.392Z,-0.60
2023-01-27T18:40:26.255Z,-0.50
2023-01-27T18:42:54.710Z,-0.60
2023-01-27T18:45:22.279Z,-0.60
2023-01-27T18:47:50.197Z,-0.60
2023-01-27T18:50:23.308Z,-0.60
2023-01-27T18:52:50.901Z,-0.70
2023-01-27T18:55:21.685Z,-0.70
2023-01-27T18:57:52.070Z,-0.70
2023-01-27T19:00:22.113Z,-0.70
2023-01-27T19:02:55.304Z,-0.60
2023-01-27T19:05:42.568Z,-0.70
2023-01-27T19:08:15.046Z,-0.70
2023-01-27T19:10:41.972Z,-0.70
2023-01-27T19:13:12.017Z,-0.70
2023-01-27T19:15:48.444Z,-0.70
2023-01-27T19:18:27.195Z,-0.80
2023-01-27T19:20:54.354Z,-0.80
2023-01-27T19:23:22.245Z,-0.80
2023-01-27T19:25:56.009Z,-0.80
2023-01-27T19:28:36.211Z,-0.70
2023-01-27T19:31:03.374Z,-0.70
2023-01-27T19:33:33.507Z,-0.80
2023-01-27T19:36:08.440Z,-0.70
2023-01-27T19:38:35.367Z,-0.60
2023-01-27T19:41:02.362Z,-0.60
2023-01-27T19:43:29.243Z,-0.70
2023-01-27T19:45:56.298Z,-0.80
2023-01-27T19:48:24.441Z,-0.80
2023-01-27T19:50:52.266Z,-0.90
2023-01-27T19:53:20.424Z,-0.80
2023-01-27T19:55:48.953Z,-0.80
2023-01-27T19:58:24.329Z,-0.80
2023-01-27T20:00:53.994Z,-0.80
2023-01-27T20:03:21.254Z,-0.80
2023-01-27T20:05:49.401Z,-0.80
2023-01-27T20:08:19.980Z,-0.90
2023-01-27T20:10:47.368Z,-0.90
2023-01-27T20:13:19.227Z,-0.90
2023-01-27T20:15:47.033Z,-0.90
2023-01-27T20:18:16.816Z,-0.90
2023-01-27T20:20:44.489Z,-0.90
2023-01-27T20:23:18.061Z,-1.00
2023-01-27T20:25:45.039Z,-0.90
2023-01-27T20:28:12.716Z,-1.00
2023-01-27T20:30:42.132Z,-0.90
2023-01-27T20:33:11.313Z,-1.00
2023-01-27T20:35:39.971Z,-1.00
2023-01-27T20:38:06.923Z,-1.00
2023-01-27T20:40:33.898Z,-1.00
2023-01-27T20:43:03.087Z,-1.00
2023-01-27T20:45:32.434Z,-1.00
2023-01-27T20:47:59.919Z,-1.00
2023-01-27T20:50:27.081Z,-1.00
2023-01-27T20:52:54.637Z,-1.00
2023-01-27T20:55:21.771Z,-1.00
2023-01-27T20:57:49.163Z,-0.90
2023-01-27T21:00:20.707Z,-0.90
2023-01-27T21:02:48.275Z,-0.90
2023-01-27T21:05:15.908Z,-0.80
2023-01-27T21:07:43.264Z,-0.80
2023-01-27T21:10:10.822Z,-0.80
2023-01-27T21:12:37.809Z,-0.80
2023-01-27T21:15:10.848Z,-0.90
2023-01-27T21:17:37.997Z,-0.90
2023-01-27T21:20:05.774Z,-0.90
2023-01-27T21:22:34.668Z,-0.80
2023-01-27T21:25:01.814Z,-0.80
2023-01-27T21:27:28.724Z,-0.80
2023-01-27T21:29:55.726Z,-0.70
2023-01-27T21:32:22.682Z,-0.70
2023-01-27T21:34:49.563Z,-0.70
2023-01-27T21:37:16.501Z,-0.70
2023-01-27T21:39:43.380Z,-0.80
2023-01-27T21:42:13.820Z,-0.70
2023-01-27T21:44:59.480Z,-0.70
2023-01-27T21:47:26.489Z,-0.80
2023-01-27T21:50:02.577Z,-0.70
2023-01-27T21:52:42.457Z,-0.70
2023-01-27T21:55:11.795Z,-0.70
2023-01-27T21:57:38.852Z,-0.80
2023-01-27T22:00:08.434Z,-0.80
2023-01-27T22:02:36.067Z,-0.80
2023-01-27T22:05:03.117Z,-0.70
2023-01-27T22:07:34.291Z,-0.80
2023-01-27T22:10:01.289Z,-0.80
2023-01-27T22:12:28.245Z,-0.80
2023-01-27T22:14:55.151Z,-0.80
2023-01-27T22:17:22.060Z,-0.80
2023-01-27T22:19:49.074Z,-0.90
2023-01-27T22:22:15.980Z,-1.00
2023-01-27T22:24:42.924Z,-1.10
2023-01-27T22:27:09.816Z,-1.10
2023-01-27T22:29:36.731Z,-1.10
2023-01-27T22:32:03.728Z,-1.10
2023-01-27T22:34:30.655Z,-1.10
2023-01-27T22:36:57.565Z,-1.10
2023-01-27T22:39:24.625Z,-1.10
2023-01-27T22:41:51.589Z,-1.20
2023-01-27T22:44:18.687Z,-1.00
2023-01-27T22:46:47.338Z,-1.10
2023-01-27T22:49:14.276Z,-1.10
2023-01-27T22:51:41.564Z,-1.10
2023-01-27T22:54:11.353Z,-1.10
2023-01-27T22:56:38.268Z,-1.20
2023-01-27T22:59:05.617Z,-1.20
2023-01-27T23:01:32.728Z,-1.20
2023-01-27T23:03:59.721Z,-1.20
2023-01-27T23:06:26.728Z,-1.20
2023-01-27T23:08:53.671Z,-1.20
2023-01-27T23:11:20.709Z,-1.20
2023-01-27T23:13:47.738Z,-1.10
2023-01-27T23:16:14.843Z,-1.20
2023-01-27T23:18:41.735Z,-1.20
2023-01-27T23:21:08.906Z,-1.20
2023-01-27T23:23:36.179Z,-1.20
2023-01-27T23:26:07.461Z,-1.20
2023-01-27T23:28:35.213Z,-1.20
2023-01-27T23:31:02.329Z,-1.20
2023-01-27T23:33:34.480Z,-1.20
2023-01-27T23:36:01.592Z,-1.20
2023-01-27T23:38:33.085Z,-1.20
2023-01-27T23:41:06.721Z,-1.20
2023-01-27T23:43:34.167Z,-1.20
2023-01-27T23:46:01.310Z,-1.20
2023-01-27T23:48:28.374Z,-1.20
2023-01-27T23:50:55.422Z,-1.20
2023-01-27T23:53:23.024Z,-1.20
2023-01-27T23:55:58.158Z,-1.20
2023-01-27T23:58:26.401Z,-1.20
